sensor_id;sensor_type;location;lat;lon;timestamp;temperature;humidity
9820;DHT22;4949;48.482;9.206;2022-12-18T00:04:20;-8.30;67.00
9820;DHT22;4949;48.482;9.206;2022-12-18T00:09:22;-8.10;67.00
9820;DHT22;4949;48.482;9.206;2022-12-18T00:14:23;-8.40;66.00
9820;DHT22;4949;48.482;9.206;2022-12-18T00:19:26;-8.30;65.90
9820;DHT22;4949;48.482;9.206;2022-12-18T00:24:29;-8.80;64.90
9820;DHT22;4949;48.482;9.206;2022-12-18T00:29:33;-8.40;65.60
9820;DHT22;4949;48.482;9.206;2022-12-18T00:34:33;-8.20;66.60
9820;DHT22;4949;48.482;9.206;2022-12-18T00:39:34;-8.40;66.30
9820;DHT22;4949;48.482;9.206;2022-12-18T00:44:37;-8.30;66.20
9820;DHT22;4949;48.482;9.206;2022-12-18T00:49:38;-8.30;65.60
9820;DHT22;4949;48.482;9.206;2022-12-18T00:54:39;-9.00;64.90
9820;DHT22;4949;48.482;9.206;2022-12-18T00:59:39;-8.10;65.50
9820;DHT22;4949;48.482;9.206;2022-12-18T01:04:40;-9.00;64.90
9820;DHT22;4949;48.482;9.206;2022-12-18T01:09:41;-9.00;65.30
9820;DHT22;4949;48.482;9.206;2022-12-18T01:14:41;-8.70;65.60
9820;DHT22;4949;48.482;9.206;2022-12-18T01:19:42;-9.10;65.10
9820;DHT22;4949;48.482;9.206;2022-12-18T01:24:43;-8.60;65.20
9820;DHT22;4949;48.482;9.206;2022-12-18T01:29:44;-8.80;65.00
9820;DHT22;4949;48.482;9.206;2022-12-18T01:34:44;-8.90;64.90
9820;DHT22;4949;48.482;9.206;2022-12-18T01:39:45;-9.20;64.80
9820;DHT22;4949;48.482;9.206;2022-12-18T01:50:32;-9.30;65.10
9820;DHT22;4949;48.482;9.206;2022-12-18T01:55:46;-9.30;65.60
9820;DHT22;4949;48.482;9.206;2022-12-18T02:00:51;-8.60;66.00
9820;DHT22;4949;48.482;9.206;2022-12-18T02:06:15;-9.40;65.90
9820;DHT22;4949;48.482;9.206;2022-12-18T02:11:40;-8.80;66.30
9820;DHT22;4949;48.482;9.206;2022-12-18T02:27:39;-8.80;65.90
9820;DHT22;4949;48.482;9.206;2022-12-18T02:32:45;-8.80;65.90
9820;DHT22;4949;48.482;9.206;2022-12-18T02:37:51;-9.10;65.60
9820;DHT22;4949;48.482;9.206;2022-12-18T02:42:53;-8.80;65.90
9820;DHT22;4949;48.482;9.206;2022-12-18T02:47:54;-8.80;66.10
9820;DHT22;4949;48.482;9.206;2022-12-18T02:53:02;-8.80;66.00
9820;DHT22;4949;48.482;9.206;2022-12-18T02:58:17;-8.80;65.80
9820;DHT22;4949;48.482;9.206;2022-12-18T03:03:27;-9.20;65.10
9820;DHT22;4949;48.482;9.206;2022-12-18T03:08:41;-8.70;65.80
9820;DHT22;4949;48.482;9.206;2022-12-18T03:13:57;-8.90;66.00
9820;DHT22;4949;48.482;9.206;2022-12-18T03:19:08;-8.80;66.20
9820;DHT22;4949;48.482;9.206;2022-12-18T03:24:15;-8.80;66.60
9820;DHT22;4949;48.482;9.206;2022-12-18T03:29:23;-9.10;66.80
9820;DHT22;4949;48.482;9.206;2022-12-18T03:34:30;-9.20;67.00
9820;DHT22;4949;48.482;9.206;2022-12-18T03:39:35;-9.20;66.20
9820;DHT22;4949;48.482;9.206;2022-12-18T03:55:20;-8.90;66.60
9820;DHT22;4949;48.482;9.206;2022-12-18T04:00:22;-9.30;66.90
9820;DHT22;4949;48.482;9.206;2022-12-18T04:05:24;-9.00;66.50
9820;DHT22;4949;48.482;9.206;2022-12-18T04:10:28;-9.00;66.40
9820;DHT22;4949;48.482;9.206;2022-12-18T04:15:37;-8.90;66.30
9820;DHT22;4949;48.482;9.206;2022-12-18T04:20:38;-8.80;67.00
9820;DHT22;4949;48.482;9.206;2022-12-18T04:25:39;-9.30;66.30
9820;DHT22;4949;48.482;9.206;2022-12-18T04:30:40;-9.00;67.00
9820;DHT22;4949;48.482;9.206;2022-12-18T04:35:43;-9.30;65.90
9820;DHT22;4949;48.482;9.206;2022-12-18T04:40:44;-9.00;66.90
9820;DHT22;4949;48.482;9.206;2022-12-18T04:45:44;-9.20;67.50
9820;DHT22;4949;48.482;9.206;2022-12-18T04:50:47;-9.10;68.20
9820;DHT22;4949;48.482;9.206;2022-12-18T04:55:48;-9.00;66.60
9820;DHT22;4949;48.482;9.206;2022-12-18T05:00:49;-9.10;67.20
9820;DHT22;4949;48.482;9.206;2022-12-18T05:05:50;-8.90;67.20
9820;DHT22;4949;48.482;9.206;2022-12-18T05:10:59;-9.70;67.30
9820;DHT22;4949;48.482;9.206;2022-12-18T05:16:01;-9.20;69.20
9820;DHT22;4949;48.482;9.206;2022-12-18T05:21:03;-9.00;69.60
9820;DHT22;4949;48.482;9.206;2022-12-18T05:26:05;-9.00;68.30
9820;DHT22;4949;48.482;9.206;2022-12-18T05:31:07;-9.50;67.50
9820;DHT22;4949;48.482;9.206;2022-12-18T05:36:08;-9.60;66.20
9820;DHT22;4949;48.482;9.206;2022-12-18T05:41:09;-9.20;66.10
9820;DHT22;4949;48.482;9.206;2022-12-18T05:46:14;-9.70;66.20
9820;DHT22;4949;48.482;9.206;2022-12-18T05:51:21;-9.70;65.20
9820;DHT22;4949;48.482;9.206;2022-12-18T05:56:22;-9.40;64.90
9820;DHT22;4949;48.482;9.206;2022-12-18T06:01:25;-9.30;64.90
9820;DHT22;4949;48.482;9.206;2022-12-18T06:06:29;-9.50;65.50
9820;DHT22;4949;48.482;9.206;2022-12-18T06:11:30;-10.00;64.10
9820;DHT22;4949;48.482;9.206;2022-12-18T06:16:31;-9.60;65.10
9820;DHT22;4949;48.482;9.206;2022-12-18T06:21:32;-9.80;65.10
9820;DHT22;4949;48.482;9.206;2022-12-18T06:26:33;-9.60;65.60
9820;DHT22;4949;48.482;9.206;2022-12-18T06:31:36;-9.50;65.80
9820;DHT22;4949;48.482;9.206;2022-12-18T06:36:37;-9.40;66.00
9820;DHT22;4949;48.482;9.206;2022-12-18T06:41:40;-9.60;66.10
9820;DHT22;4949;48.482;9.206;2022-12-18T06:46:41;-9.50;66.70
9820;DHT22;4949;48.482;9.206;2022-12-18T06:51:44;-10.00;66.40
9820;DHT22;4949;48.482;9.206;2022-12-18T06:56:45;-10.10;66.10
9820;DHT22;4949;48.482;9.206;2022-12-18T07:01:46;-9.80;67.00
9820;DHT22;4949;48.482;9.206;2022-12-18T07:06:49;-9.60;66.80
9820;DHT22;4949;48.482;9.206;2022-12-18T07:11:50;-9.80;66.80
9820;DHT22;4949;48.482;9.206;2022-12-18T07:16:51;-9.70;66.90
9820;DHT22;4949;48.482;9.206;2022-12-18T07:21:52;-9.60;67.30
9820;DHT22;4949;48.482;9.206;2022-12-18T07:26:52;-9.60;67.00
9820;DHT22;4949;48.482;9.206;2022-12-18T07:31:53;-9.30;67.30
9820;DHT22;4949;48.482;9.206;2022-12-18T07:36:56;-9.50;66.70
9820;DHT22;4949;48.482;9.206;2022-12-18T07:41:57;-9.80;66.50
9820;DHT22;4949;48.482;9.206;2022-12-18T07:47:18;-9.50;67.00
9820;DHT22;4949;48.482;9.206;2022-12-18T07:52:18;-9.40;66.90
9820;DHT22;4949;48.482;9.206;2022-12-18T07:57:19;-9.40;67.10
9820;DHT22;4949;48.482;9.206;2022-12-18T08:02:20;-9.30;67.30
9820;DHT22;4949;48.482;9.206;2022-12-18T08:07:21;-9.90;67.10
9820;DHT22;4949;48.482;9.206;2022-12-18T08:12:21;-9.50;67.20
9820;DHT22;4949;48.482;9.206;2022-12-18T08:17:22;-9.70;67.20
9820;DHT22;4949;48.482;9.206;2022-12-18T08:22:23;-9.40;67.60
9820;DHT22;4949;48.482;9.206;2022-12-18T08:27:29;-9.70;66.90
9820;DHT22;4949;48.482;9.206;2022-12-18T08:32:30;-9.10;68.30
9820;DHT22;4949;48.482;9.206;2022-12-18T08:37:33;-9.20;67.80
9820;DHT22;4949;48.482;9.206;2022-12-18T08:42:36;-9.40;67.80
9820;DHT22;4949;48.482;9.206;2022-12-18T08:47:55;-9.40;68.00
9820;DHT22;4949;48.482;9.206;2022-12-18T08:52:56;-8.90;68.10
9820;DHT22;4949;48.482;9.206;2022-12-18T08:57:57;-9.20;67.80
9820;DHT22;4949;48.482;9.206;2022-12-18T09:02:58;-8.80;68.70
9820;DHT22;4949;48.482;9.206;2022-12-18T09:07:59;-9.10;68.30
9820;DHT22;4949;48.482;9.206;2022-12-18T09:13:02;-9.00;68.80
9820;DHT22;4949;48.482;9.206;2022-12-18T09:18:07;-8.50;70.00
9820;DHT22;4949;48.482;9.206;2022-12-18T09:23:09;-8.40;69.70
9820;DHT22;4949;48.482;9.206;2022-12-18T09:28:17;-8.20;70.80
9820;DHT22;4949;48.482;9.206;2022-12-18T09:33:18;-7.80;71.70
9820;DHT22;4949;48.482;9.206;2022-12-18T09:38:19;-7.90;72.90
9820;DHT22;4949;48.482;9.206;2022-12-18T09:43:28;-7.50;72.60
9820;DHT22;4949;48.482;9.206;2022-12-18T09:48:40;-6.90;74.30
9820;DHT22;4949;48.482;9.206;2022-12-18T09:53:47;-6.40;73.70
9820;DHT22;4949;48.482;9.206;2022-12-18T10:03:59;-5.90;71.60
9820;DHT22;4949;48.482;9.206;2022-12-18T10:20:14;-4.50;66.90
9820;DHT22;4949;48.482;9.206;2022-12-18T10:30:56;-4.20;63.40
9820;DHT22;4949;48.482;9.206;2022-12-18T10:35:59;-3.50;62.40
9820;DHT22;4949;48.482;9.206;2022-12-18T10:41:03;-3.20;63.10
9820;DHT22;4949;48.482;9.206;2022-12-18T10:51:09;-2.40;62.40
9820;DHT22;4949;48.482;9.206;2022-12-18T10:56:20;-2.30;62.00
9820;DHT22;4949;48.482;9.206;2022-12-18T11:01:21;-2.00;61.90
9820;DHT22;4949;48.482;9.206;2022-12-18T11:06:23;-1.70;61.60
9820;DHT22;4949;48.482;9.206;2022-12-18T11:11:25;-1.70;61.70
9820;DHT22;4949;48.482;9.206;2022-12-18T11:16:34;-1.50;61.40
9820;DHT22;4949;48.482;9.206;2022-12-18T11:21:43;-1.30;61.40
9820;DHT22;4949;48.482;9.206;2022-12-18T11:26:44;-0.80;60.80
9820;DHT22;4949;48.482;9.206;2022-12-18T11:31:45;-0.40;60.90
9820;DHT22;4949;48.482;9.206;2022-12-18T11:36:48;0.20;62.00
9820;DHT22;4949;48.482;9.206;2022-12-18T11:42:09;0.40;61.30
9820;DHT22;4949;48.482;9.206;2022-12-18T11:52:25;0.40;60.10
9820;DHT22;4949;48.482;9.206;2022-12-18T11:57:42;0.40;60.20
9820;DHT22;4949;48.482;9.206;2022-12-18T12:14:27;0.50;60.90
9820;DHT22;4949;48.482;9.206;2022-12-18T12:19:42;0.70;60.60
9820;DHT22;4949;48.482;9.206;2022-12-18T12:30:27;0.20;62.10
9820;DHT22;4949;48.482;9.206;2022-12-18T12:41:08;0.10;62.80
9820;DHT22;4949;48.482;9.206;2022-12-18T12:46:35;-0.10;63.20
9820;DHT22;4949;48.482;9.206;2022-12-18T12:51:41;-0.30;64.30
9820;DHT22;4949;48.482;9.206;2022-12-18T12:56:54;-0.70;65.60
9820;DHT22;4949;48.482;9.206;2022-12-18T13:02:28;-0.70;66.40
9820;DHT22;4949;48.482;9.206;2022-12-18T13:07:39;-0.70;66.70
9820;DHT22;4949;48.482;9.206;2022-12-18T13:13:14;-0.90;67.00
9820;DHT22;4949;48.482;9.206;2022-12-18T13:18:25;-1.00;67.70
9820;DHT22;4949;48.482;9.206;2022-12-18T13:23:54;-1.00;67.60
9820;DHT22;4949;48.482;9.206;2022-12-18T13:28:57;-1.00;67.50
9820;DHT22;4949;48.482;9.206;2022-12-18T13:34:24;-1.10;67.80
9820;DHT22;4949;48.482;9.206;2022-12-18T13:39:33;-1.20;67.80
9820;DHT22;4949;48.482;9.206;2022-12-18T13:44:39;-1.10;68.40
9820;DHT22;4949;48.482;9.206;2022-12-18T13:49:44;-1.20;67.70
9820;DHT22;4949;48.482;9.206;2022-12-18T13:54:49;-1.10;68.30
9820;DHT22;4949;48.482;9.206;2022-12-18T13:59:51;-0.60;68.20
9820;DHT22;4949;48.482;9.206;2022-12-18T14:04:55;-0.80;66.60
9820;DHT22;4949;48.482;9.206;2022-12-18T14:09:58;-0.60;65.40
9820;DHT22;4949;48.482;9.206;2022-12-18T14:15:00;-0.60;65.20
9820;DHT22;4949;48.482;9.206;2022-12-18T14:20:03;-0.70;65.70
9820;DHT22;4949;48.482;9.206;2022-12-18T14:30:42;-0.90;66.20
9820;DHT22;4949;48.482;9.206;2022-12-18T14:35:58;-1.10;66.60
9820;DHT22;4949;48.482;9.206;2022-12-18T14:41:11;-1.40;67.70
9820;DHT22;4949;48.482;9.206;2022-12-18T14:46:42;-1.60;68.60
9820;DHT22;4949;48.482;9.206;2022-12-18T14:51:58;-1.70;69.00
9820;DHT22;4949;48.482;9.206;2022-12-18T14:57:02;-1.80;69.50
9820;DHT22;4949;48.482;9.206;2022-12-18T15:07:23;-2.10;69.90
9820;DHT22;4949;48.482;9.206;2022-12-18T15:12:36;-2.10;70.80
9820;DHT22;4949;48.482;9.206;2022-12-18T15:17:37;-2.20;70.80
9820;DHT22;4949;48.482;9.206;2022-12-18T15:22:38;-2.30;71.70
9820;DHT22;4949;48.482;9.206;2022-12-18T15:27:40;-2.40;71.30
9820;DHT22;4949;48.482;9.206;2022-12-18T15:32:47;-2.10;71.90
9820;DHT22;4949;48.482;9.206;2022-12-18T15:37:50;-2.60;71.90
9820;DHT22;4949;48.482;9.206;2022-12-18T15:42:53;-2.60;71.70
9820;DHT22;4949;48.482;9.206;2022-12-18T15:48:22;-2.60;71.60
9820;DHT22;4949;48.482;9.206;2022-12-18T15:53:25;-2.60;71.70
9820;DHT22;4949;48.482;9.206;2022-12-18T15:58:32;-2.70;71.60
9820;DHT22;4949;48.482;9.206;2022-12-18T16:03:36;-2.70;71.70
9820;DHT22;4949;48.482;9.206;2022-12-18T16:08:36;-2.80;72.00
9820;DHT22;4949;48.482;9.206;2022-12-18T16:13:39;-2.80;72.10
9820;DHT22;4949;48.482;9.206;2022-12-18T16:18:40;-2.90;72.10
9820;DHT22;4949;48.482;9.206;2022-12-18T16:23:41;-2.90;72.40
9820;DHT22;4949;48.482;9.206;2022-12-18T16:28:44;-3.30;71.80
9820;DHT22;4949;48.482;9.206;2022-12-18T16:33:45;-3.00;73.30
9820;DHT22;4949;48.482;9.206;2022-12-18T16:38:45;-2.90;73.00
9820;DHT22;4949;48.482;9.206;2022-12-18T16:43:46;-2.90;72.40
9820;DHT22;4949;48.482;9.206;2022-12-18T16:48:47;-2.90;72.40
9820;DHT22;4949;48.482;9.206;2022-12-18T16:53:47;-2.90;72.80
9820;DHT22;4949;48.482;9.206;2022-12-18T16:58:53;-3.30;72.40
9820;DHT22;4949;48.482;9.206;2022-12-18T17:03:58;-3.00;72.80
9820;DHT22;4949;48.482;9.206;2022-12-18T17:09:02;-3.10;72.50
9820;DHT22;4949;48.482;9.206;2022-12-18T17:14:06;-2.80;72.90
9820;DHT22;4949;48.482;9.206;2022-12-18T17:19:13;-2.80;72.70
9820;DHT22;4949;48.482;9.206;2022-12-18T17:24:15;-3.00;72.50
9820;DHT22;4949;48.482;9.206;2022-12-18T17:29:19;-2.60;72.20
9820;DHT22;4949;48.482;9.206;2022-12-18T17:34:22;-2.60;72.00
9820;DHT22;4949;48.482;9.206;2022-12-18T17:39:23;-2.50;71.90
9820;DHT22;4949;48.482;9.206;2022-12-18T17:44:28;-2.50;71.90
9820;DHT22;4949;48.482;9.206;2022-12-18T17:49:31;-2.40;71.80
9820;DHT22;4949;48.482;9.206;2022-12-18T17:54:33;-2.30;71.60
9820;DHT22;4949;48.482;9.206;2022-12-18T17:59:34;-2.20;71.20
9820;DHT22;4949;48.482;9.206;2022-12-18T18:04:38;-2.10;70.80
9820;DHT22;4949;48.482;9.206;2022-12-18T18:09:39;-2.30;70.70
9820;DHT22;4949;48.482;9.206;2022-12-18T18:14:39;-2.10;71.10
9820;DHT22;4949;48.482;9.206;2022-12-18T18:19:40;-2.10;71.50
9820;DHT22;4949;48.482;9.206;2022-12-18T18:24:41;-2.00;71.50
9820;DHT22;4949;48.482;9.206;2022-12-18T18:29:43;-2.10;73.00
9820;DHT22;4949;48.482;9.206;2022-12-18T18:34:43;-2.20;73.20
9820;DHT22;4949;48.482;9.206;2022-12-18T18:39:44;-2.20;73.10
9820;DHT22;4949;48.482;9.206;2022-12-18T18:44:45;-2.40;72.80
9820;DHT22;4949;48.482;9.206;2022-12-18T18:49:47;-2.00;72.70
9820;DHT22;4949;48.482;9.206;2022-12-18T18:54:48;-1.80;71.10
9820;DHT22;4949;48.482;9.206;2022-12-18T18:59:49;-1.80;71.60
9820;DHT22;4949;48.482;9.206;2022-12-18T19:04:52;-1.90;72.20
9820;DHT22;4949;48.482;9.206;2022-12-18T19:09:53;-1.90;72.90
9820;DHT22;4949;48.482;9.206;2022-12-18T19:14:56;-1.90;73.10
9820;DHT22;4949;48.482;9.206;2022-12-18T19:19:57;-1.90;73.30
9820;DHT22;4949;48.482;9.206;2022-12-18T19:24:57;-2.30;73.70
9820;DHT22;4949;48.482;9.206;2022-12-18T19:29:58;-2.00;74.30
9820;DHT22;4949;48.482;9.206;2022-12-18T19:35:01;-2.00;74.40
9820;DHT22;4949;48.482;9.206;2022-12-18T19:40:02;-1.70;73.20
9820;DHT22;4949;48.482;9.206;2022-12-18T19:45:06;-1.60;71.10
9820;DHT22;4949;48.482;9.206;2022-12-18T19:50:07;-1.50;71.20
9820;DHT22;4949;48.482;9.206;2022-12-18T19:55:08;-1.50;70.60
9820;DHT22;4949;48.482;9.206;2022-12-18T20:00:14;-1.40;70.60
9820;DHT22;4949;48.482;9.206;2022-12-18T20:05:18;-1.30;69.80
9820;DHT22;4949;48.482;9.206;2022-12-18T20:10:27;-1.30;69.80
9820;DHT22;4949;48.482;9.206;2022-12-18T20:15:31;-1.20;70.40
9820;DHT22;4949;48.482;9.206;2022-12-18T20:20:35;-1.10;70.20
9820;DHT22;4949;48.482;9.206;2022-12-18T20:25:37;-1.20;70.60
9820;DHT22;4949;48.482;9.206;2022-12-18T20:30:42;-1.10;69.80
9820;DHT22;4949;48.482;9.206;2022-12-18T20:35:45;-0.90;69.60
9820;DHT22;4949;48.482;9.206;2022-12-18T20:40:49;-0.80;68.90
9820;DHT22;4949;48.482;9.206;2022-12-18T20:45:59;-0.80;68.90
9820;DHT22;4949;48.482;9.206;2022-12-18T20:51:04;-0.80;70.40
9820;DHT22;4949;48.482;9.206;2022-12-18T20:56:12;-0.70;69.30
9820;DHT22;4949;48.482;9.206;2022-12-18T21:01:19;-0.80;70.40
9820;DHT22;4949;48.482;9.206;2022-12-18T21:06:23;-0.80;71.20
9820;DHT22;4949;48.482;9.206;2022-12-18T21:11:29;-0.70;70.90
9820;DHT22;4949;48.482;9.206;2022-12-18T21:16:53;-0.60;70.50
9820;DHT22;4949;48.482;9.206;2022-12-18T21:21:54;-1.00;71.70
9820;DHT22;4949;48.482;9.206;2022-12-18T21:26:56;-1.20;72.50
9820;DHT22;4949;48.482;9.206;2022-12-18T21:31:59;-1.20;72.90
9820;DHT22;4949;48.482;9.206;2022-12-18T21:37:00;-1.20;73.00
9820;DHT22;4949;48.482;9.206;2022-12-18T21:42:01;-1.20;73.20
9820;DHT22;4949;48.482;9.206;2022-12-18T21:47:20;-1.10;73.30
9820;DHT22;4949;48.482;9.206;2022-12-18T21:52:21;-0.70;74.30
9820;DHT22;4949;48.482;9.206;2022-12-18T21:57:22;-1.20;74.90
9820;DHT22;4949;48.482;9.206;2022-12-18T22:02:23;-1.20;75.20
9820;DHT22;4949;48.482;9.206;2022-12-18T22:07:24;-1.00;75.40
9820;DHT22;4949;48.482;9.206;2022-12-18T22:12:25;-1.00;75.30
9820;DHT22;4949;48.482;9.206;2022-12-18T22:17:35;-0.90;75.10
9820;DHT22;4949;48.482;9.206;2022-12-18T22:22:36;-0.90;75.30
9820;DHT22;4949;48.482;9.206;2022-12-18T22:27:36;-0.90;75.60
9820;DHT22;4949;48.482;9.206;2022-12-18T22:32:40;-0.80;76.00
9820;DHT22;4949;48.482;9.206;2022-12-18T22:37:42;-1.00;76.00
9820;DHT22;4949;48.482;9.206;2022-12-18T22:42:43;-1.00;76.10
9820;DHT22;4949;48.482;9.206;2022-12-18T22:47:44;-1.00;76.10
9820;DHT22;4949;48.482;9.206;2022-12-18T22:52:47;-1.10;76.10
9820;DHT22;4949;48.482;9.206;2022-12-18T22:57:50;-1.20;75.90
9820;DHT22;4949;48.482;9.206;2022-12-18T23:02:52;-1.20;76.40
9820;DHT22;4949;48.482;9.206;2022-12-18T23:07:52;-1.10;76.20
9820;DHT22;4949;48.482;9.206;2022-12-18T23:12:53;-1.10;77.00
9820;DHT22;4949;48.482;9.206;2022-12-18T23:17:57;-1.20;77.30
9820;DHT22;4949;48.482;9.206;2022-12-18T23:22:58;-1.20;77.60
9820;DHT22;4949;48.482;9.206;2022-12-18T23:27:59;-1.10;77.80
9820;DHT22;4949;48.482;9.206;2022-12-18T23:33:03;-1.10;77.80
9820;DHT22;4949;48.482;9.206;2022-12-18T23:38:03;-1.00;78.00
9820;DHT22;4949;48.482;9.206;2022-12-18T23:43:04;-1.00;78.00
9820;DHT22;4949;48.482;9.206;2022-12-18T23:48:07;-0.90;78.30
9820;DHT22;4949;48.482;9.206;2022-12-18T23:53:11;-0.90;78.10
9820;DHT22;4949;48.482;9.206;2022-12-18T23:58:18;-0.80;77.80
